Time;durP1;ratioP1;P1;durP2;ratioP2;P2;SDS_P1;SDS_P2;PMS_P1;PMS_P2;Temp;Humidity;BMP_temperature;BMP_pressure;BME280_temperature;BME280_humidity;BME280_pressure;Samples;Min_cycle;Max_cycle;Signal;HPM_P1;HPM_P2
2022/12/04 00:00:07;;;;;;;54.38;25.23;;;4.00;67.00;;;;;;2317593;58;21057;-48
2022/12/04 00:02:35;;;;;;;62.53;28.27;;;4.00;67.00;;;;;;2317444;58;21551;-48
2022/12/04 00:05:03;;;;;;;59.33;26.92;;;4.10;67.20;;;;;;2317595;58;21629;-49
2022/12/04 00:07:31;;;;;;;62.83;27.62;;;4.10;67.00;;;;;;2317182;58;21548;-51
2022/12/04 00:09:58;;;;;;;60.25;28.60;;;4.00;66.80;;;;;;2317587;58;21612;-49
2022/12/04 00:15:01;;;;;;;64.25;27.08;;;4.00;67.20;;;;;;2328639;57;22138;-47
2022/12/04 00:17:28;;;;;;;63.53;28.67;;;4.00;67.10;;;;;;2347249;57;21061;-47
2022/12/04 00:19:55;;;;;;;64.68;26.87;;;4.00;67.10;;;;;;2347853;57;21545;-49
2022/12/04 00:22:23;;;;;;;63.67;28.10;;;3.90;67.20;;;;;;2347858;57;21057;-49
2022/12/04 00:24:50;;;;;;;60.67;26.27;;;3.90;67.20;;;;;;2346424;57;21085;-49
2022/12/04 00:27:17;;;;;;;64.37;26.87;;;3.90;67.40;;;;;;2347008;57;21583;-50
2022/12/04 00:29:44;;;;;;;60.45;26.70;;;3.90;67.50;;;;;;2346108;57;21026;-50
2022/12/04 00:32:11;;;;;;;64.50;29.08;;;3.90;67.60;;;;;;2347116;57;21050;-50
2022/12/04 00:34:38;;;;;;;62.88;28.00;;;3.90;67.80;;;;;;2346704;57;21627;-49
2022/12/04 00:37:05;;;;;;;65.30;27.98;;;3.90;67.80;;;;;;2347048;57;21042;-48
2022/12/04 00:39:33;;;;;;;64.95;28.30;;;3.90;67.90;;;;;;2346885;57;21062;-51
2022/12/04 00:42:00;;;;;;;67.40;29.20;;;3.90;68.00;;;;;;2346868;57;21548;-48
2022/12/04 00:44:27;;;;;;;59.97;25.65;;;3.90;68.30;;;;;;2345824;57;21092;-49
2022/12/04 00:46:54;;;;;;;58.92;26.27;;;4.00;68.30;;;;;;2346685;57;21057;-48
2022/12/04 00:49:21;;;;;;;58.97;26.80;;;4.00;68.50;;;;;;2347051;57;21109;-51
2022/12/04 00:51:48;;;;;;;58.65;26.80;;;4.00;68.40;;;;;;2346608;57;21538;-51
2022/12/04 00:54:15;;;;;;;62.75;27.35;;;4.00;68.40;;;;;;2347029;57;21058;-48
2022/12/04 00:56:42;;;;;;;61.90;27.08;;;4.00;68.30;;;;;;2346906;57;21054;-51
2022/12/04 00:59:10;;;;;;;61.70;26.23;;;4.00;68.40;;;;;;2346684;57;21542;-50
2022/12/04 01:01:38;;;;;;;58.63;26.05;;;4.00;68.40;;;;;;2346468;57;21041;-50
2022/12/04 01:04:05;;;;;;;61.00;27.02;;;4.00;68.40;;;;;;2346726;57;21714;-51
2022/12/04 01:06:34;;;;;;;60.28;27.02;;;4.00;68.50;;;;;;2347650;57;21093;-50
2022/12/04 01:09:03;;;;;;;63.90;27.80;;;4.00;68.60;;;;;;2347826;57;21649;-51
2022/12/04 01:11:31;;;;;;;54.97;23.75;;;4.00;68.60;;;;;;2347189;57;21609;-50
2022/12/04 01:13:59;;;;;;;62.17;28.37;;;4.00;68.60;;;;;;2346889;57;21042;-51
2022/12/04 01:19:04;;;;;;;68.10;29.50;;;4.00;68.60;;;;;;2569546;51;22143;-53
2022/12/04 01:21:31;;;;;;;64.82;27.90;;;4.00;68.60;;;;;;2391049;56;21085;-52
2022/12/04 01:23:59;;;;;;;66.93;29.65;;;4.00;68.60;;;;;;2391032;56;21066;-52
2022/12/04 01:26:26;;;;;;;67.87;28.00;;;4.00;68.70;;;;;;2390640;56;21034;-50
2022/12/04 01:28:53;;;;;;;66.50;28.55;;;4.00;68.70;;;;;;2389438;56;21030;-52
2022/12/04 01:31:21;;;;;;;69.80;28.62;;;4.00;68.80;;;;;;2389484;56;21154;-51
2022/12/04 01:33:49;;;;;;;64.57;27.50;;;4.00;68.90;;;;;;2389671;56;21503;-50
2022/12/04 01:36:19;;;;;;;63.05;27.48;;;4.00;68.90;;;;;;2388250;56;21565;-52
2022/12/04 01:38:46;;;;;;;59.25;27.90;;;4.00;69.00;;;;;;2389954;56;21589;-53
2022/12/04 01:41:16;;;;;;;63.00;27.83;;;4.00;69.00;;;;;;2389026;56;21034;-54
2022/12/04 01:43:44;;;;;;;66.80;28.25;;;4.00;69.10;;;;;;2388391;56;21518;-54
2022/12/04 01:46:11;;;;;;;65.22;27.80;;;4.00;69.10;;;;;;2388485;56;21022;-49
2022/12/04 01:48:43;;;;;;;61.00;27.58;;;4.00;69.10;;;;;;2388142;56;21090;-51
2022/12/04 01:51:16;;;;;;;67.45;30.10;;;4.00;69.10;;;;;;2387637;56;22083;-49
2022/12/04 01:53:46;;;;;;;63.55;29.27;;;4.00;69.10;;;;;;2389209;56;21015;-49
2022/12/04 01:56:15;;;;;;;63.53;26.73;;;4.00;69.30;;;;;;2388701;56;21514;-51
2022/12/04 01:58:46;;;;;;;64.50;26.70;;;4.00;69.30;;;;;;2388696;56;21518;-50
2022/12/04 02:01:13;;;;;;;63.03;28.55;;;4.00;69.30;;;;;;2388108;56;21574;-49
2022/12/04 02:03:40;;;;;;;68.43;29.90;;;4.00;69.30;;;;;;2387793;56;21027;-49
2022/12/04 02:06:07;;;;;;;69.25;29.58;;;4.00;69.30;;;;;;2388129;56;21620;-52
2022/12/04 02:08:36;;;;;;;63.70;27.20;;;4.00;69.30;;;;;;2387243;56;21026;-53
2022/12/04 02:11:16;;;;;;;71.20;28.77;;;4.10;69.40;;;;;;2388441;56;21526;-52
2022/12/04 02:13:53;;;;;;;69.28;28.05;;;4.00;69.40;;;;;;2390090;56;20987;-55
2022/12/04 02:16:30;;;;;;;62.42;27.17;;;4.00;69.30;;;;;;2389676;56;21780;-51
2022/12/04 02:19:05;;;;;;;71.00;28.60;;;4.00;69.30;;;;;;2389164;56;21003;-49
2022/12/04 02:21:35;;;;;;;60.40;26.27;;;4.00;69.40;;;;;;2390304;56;20998;-53
2022/12/04 02:24:41;;;;;;;65.43;28.85;;;4.00;69.40;;;;;;2389580;56;21050;-50
2022/12/04 02:27:18;;;;;;;65.62;27.77;;;4.10;69.60;;;;;;2388648;56;21498;-53
2022/12/04 02:29:53;;;;;;;73.60;29.67;;;4.00;69.40;;;;;;2387476;56;21571;-51
2022/12/04 02:32:26;;;;;;;65.57;27.37;;;4.10;69.50;;;;;;2387087;56;21006;-52
2022/12/04 02:34:55;;;;;;;;;;;4.10;70.30;;;;;;2390862;56;21019;-55
2022/12/04 02:38:17;;;;;;;63.92;27.45;;;4.20;69.50;;;;;;2386244;56;20787;-53
2022/12/04 02:40:51;;;;;;;68.32;28.15;;;4.10;69.20;;;;;;2386158;56;21269;-50
2022/12/04 02:43:22;;;;;;;63.97;27.17;;;4.00;69.20;;;;;;2386995;56;21161;-50
2022/12/04 02:45:58;;;;;;;66.18;27.27;;;4.00;69.40;;;;;;2387670;56;21486;-49
2022/12/04 02:48:28;;;;;;;65.70;28.38;;;4.00;69.60;;;;;;2387318;56;21078;-51
2022/12/04 02:50:58;;;;;;;59.78;28.20;;;4.00;69.70;;;;;;2387263;56;21538;-51
2022/12/04 02:53:29;;;;;;;70.00;28.02;;;4.00;69.90;;;;;;2386936;56;21105;-54
2022/12/04 02:56:00;;;;;;;65.80;27.48;;;4.00;70.00;;;;;;2386883;56;21078;-52
2022/12/04 02:58:33;;;;;;;66.37;28.80;;;4.00;69.90;;;;;;2386321;56;21018;-52
2022/12/04 03:01:18;;;;;;;66.25;27.62;;;4.00;70.00;;;;;;2387168;56;22030;-53
2022/12/04 03:03:48;;;;;;;73.12;28.15;;;4.00;70.00;;;;;;2389197;56;21589;-53
2022/12/04 03:06:17;;;;;;;73.12;28.17;;;4.00;69.90;;;;;;2389201;56;21006;-51
2022/12/04 03:08:49;;;;;;;64.78;26.23;;;4.00;70.00;;;;;;2388943;56;21062;-52
2022/12/04 03:11:16;;;;;;;60.53;27.60;;;4.00;70.20;;;;;;2388422;56;21010;-49
2022/12/04 03:13:48;;;;;;;65.22;26.77;;;4.00;70.20;;;;;;2387521;56;21035;-49
2022/12/04 03:16:18;;;;;;;65.47;28.00;;;4.00;70.30;;;;;;2387135;56;21039;-51
2022/12/04 03:18:49;;;;;;;64.78;27.45;;;4.00;70.20;;;;;;2387311;56;21637;-55
2022/12/04 03:21:19;;;;;;;61.85;28.65;;;4.00;70.30;;;;;;2387273;56;21602;-50
2022/12/04 03:23:51;;;;;;;61.83;28.08;;;4.00;70.30;;;;;;2386799;56;21532;-51
2022/12/04 03:26:25;;;;;;;66.33;28.70;;;4.00;70.40;;;;;;2386986;56;21084;-50
2022/12/04 03:28:57;;;;;;;66.90;27.75;;;4.00;70.50;;;;;;2387382;56;21525;-52
2022/12/04 03:31:32;;;;;;;68.78;27.62;;;4.00;70.30;;;;;;2386696;56;21026;-50
2022/12/04 03:34:03;;;;;;;65.78;27.35;;;4.00;70.30;;;;;;2387980;56;21109;-52
2022/12/04 03:36:35;;;;;;;64.53;28.23;;;4.00;70.40;;;;;;2388016;56;21572;-49
2022/12/04 03:39:11;;;;;;;66.53;29.58;;;4.00;70.50;;;;;;2386752;56;21094;-50
2022/12/04 03:41:53;;;;;;;63.50;27.15;;;4.00;70.50;;;;;;2387062;56;21918;-51
2022/12/04 03:47:07;;;;;;;64.65;27.35;;;3.90;70.50;;;;;;2353867;57;22082;-50
2022/12/04 03:49:43;;;;;;;65.22;27.73;;;3.90;70.50;;;;;;2344693;57;21105;-54
2022/12/04 03:52:16;;;;;;;69.50;27.33;;;4.00;70.60;;;;;;2344533;57;21045;-53
2022/12/04 03:54:48;;;;;;;69.00;28.58;;;4.00;70.60;;;;;;2343691;57;21512;-54
2022/12/04 03:57:19;;;;;;;65.65;28.38;;;4.00;70.80;;;;;;2346198;57;21038;-54
2022/12/04 03:59:50;;;;;;;59.92;25.48;;;4.00;70.80;;;;;;2346191;57;21561;-52
2022/12/04 04:02:21;;;;;;;65.75;26.42;;;4.00;70.80;;;;;;2346078;57;21089;-51
2022/12/04 04:04:54;;;;;;;66.80;27.25;;;4.00;70.90;;;;;;2345097;57;21038;-53
2022/12/04 04:07:25;;;;;;;70.07;29.15;;;4.00;70.80;;;;;;2344805;57;21540;-52
2022/12/04 04:09:59;;;;;;;65.10;28.50;;;4.00;70.80;;;;;;2344389;57;21608;-54
2022/12/04 04:12:32;;;;;;;62.53;26.90;;;4.00;70.90;;;;;;2344102;57;21106;-55
2022/12/04 04:26:18;;;;;;;65.00;26.75;;;4.00;70.90;;;;;;2344989;57;21652;-50
2022/12/04 04:28:46;;;;;;;66.10;28.52;;;4.00;71.00;;;;;;2344626;57;21517;-51
2022/12/04 04:31:22;;;;;;;65.25;28.40;;;4.00;71.10;;;;;;2343730;57;21090;-54
2022/12/04 04:33:58;;;;;;;69.65;28.08;;;4.00;71.10;;;;;;2344309;57;22086;-50
2022/12/04 04:36:35;;;;;;;63.33;28.12;;;4.00;71.00;;;;;;2344812;57;21749;-52
2022/12/04 04:39:11;;;;;;;64.90;28.92;;;4.10;71.90;;;;;;2344093;57;21585;-51
2022/12/04 04:41:43;;;;;;;64.68;26.92;;;4.10;71.10;;;;;;2344516;57;21518;-50
2022/12/04 04:44:17;;;;;;;73.45;29.92;;;4.10;71.00;;;;;;2344595;57;21521;-50
2022/12/04 04:46:50;;;;;;;63.15;27.48;;;4.10;70.90;;;;;;2346320;57;21030;-54
2022/12/04 04:49:18;;;;;;;65.87;28.10;;;4.10;71.00;;;;;;2346229;57;21017;-48
2022/12/04 04:51:46;;;;;;;64.32;29.00;;;4.10;71.00;;;;;;2346374;57;21104;-50
2022/12/04 04:54:15;;;;;;;64.53;29.52;;;4.10;71.00;;;;;;2345059;57;21192;-52
2022/12/04 04:56:45;;;;;;;64.60;28.30;;;4.10;70.90;;;;;;2344144;57;21316;-50
2022/12/04 04:59:13;;;;;;;70.03;28.33;;;4.10;71.00;;;;;;2344048;57;21529;-48
2022/12/04 05:01:43;;;;;;;68.55;29.58;;;4.10;70.90;;;;;;2343753;57;21581;-48
2022/12/04 05:04:11;;;;;;;62.28;27.73;;;4.10;70.90;;;;;;2343073;57;21109;-50
2022/12/04 05:06:38;;;;;;;62.90;27.75;;;4.10;71.00;;;;;;2341977;57;22186;-53
2022/12/04 05:09:05;;;;;;;70.25;30.40;;;4.10;71.00;;;;;;2342927;57;21069;-49
2022/12/04 05:11:32;;;;;;;64.50;27.77;;;4.10;71.90;;;;;;2342626;57;21173;-54
2022/12/04 05:13:59;;;;;;;64.62;29.25;;;4.10;71.00;;;;;;2343771;57;21401;-51
2022/12/04 05:16:27;;;;;;;65.25;29.87;;;4.10;71.10;;;;;;2343812;57;21549;-53
2022/12/04 05:21:40;;;;;;;66.45;27.67;;;4.10;71.90;;;;;;2343591;57;20998;-51
2022/12/04 05:24:08;;;;;;;69.95;28.67;;;4.10;71.20;;;;;;2343439;57;21117;-52
2022/12/04 05:26:36;;;;;;;64.65;27.60;;;4.10;72.00;;;;;;2343382;57;21106;-50
2022/12/04 05:29:03;;;;;;;73.18;31.08;;;4.10;71.30;;;;;;2342188;57;21663;-49
2022/12/04 05:31:30;;;;;;;72.65;29.50;;;4.10;71.30;;;;;;2343374;57;21050;-53
2022/12/04 05:33:58;;;;;;;70.12;29.42;;;4.10;71.40;;;;;;2343325;57;21054;-51
2022/12/04 05:36:25;;;;;;;76.00;29.87;;;4.10;71.40;;;;;;2343200;57;21041;-50
2022/12/04 05:38:52;;;;;;;65.97;28.75;;;4.10;71.30;;;;;;2343440;57;22227;-52
2022/12/04 05:41:19;;;;;;;70.20;28.83;;;4.10;71.40;;;;;;2343359;57;21033;-52
2022/12/04 05:43:46;;;;;;;69.90;29.67;;;4.10;71.40;;;;;;2342745;57;21113;-52
2022/12/04 05:46:13;;;;;;;73.53;29.85;;;4.10;71.50;;;;;;2343473;57;21042;-51
2022/12/04 05:48:40;;;;;;;69.10;29.50;;;4.10;71.50;;;;;;2343123;57;21058;-50
2022/12/04 05:51:09;;;;;;;74.62;30.60;;;4.10;71.50;;;;;;2342108;57;21557;-51
2022/12/04 05:53:36;;;;;;;73.00;30.30;;;4.10;71.50;;;;;;2343077;57;21680;-55
2022/12/04 05:56:05;;;;;;;70.85;29.50;;;4.00;71.60;;;;;;2342576;57;21628;-53
2022/12/04 05:58:34;;;;;;;72.37;30.25;;;4.10;71.70;;;;;;2341779;57;22231;-51
2022/12/04 06:01:08;;;;;;;75.87;31.87;;;4.10;71.70;;;;;;2343929;57;21581;-51
2022/12/04 06:03:35;;;;;;;71.37;28.30;;;4.10;71.70;;;;;;2344161;57;21074;-49
2022/12/04 06:06:03;;;;;;;78.80;32.65;;;4.10;71.80;;;;;;2343334;57;21062;-55
2022/12/04 06:08:30;;;;;;;71.22;28.42;;;4.10;71.80;;;;;;2343393;57;21129;-52
2022/12/04 06:10:57;;;;;;;71.07;31.05;;;4.10;71.80;;;;;;2343659;57;21081;-52
2022/12/04 06:13:25;;;;;;;75.10;30.48;;;4.10;71.80;;;;;;2342986;57;21053;-50
2022/12/04 06:15:52;;;;;;;73.43;30.48;;;4.10;71.80;;;;;;2342368;57;21034;-51
2022/12/04 06:18:20;;;;;;;73.60;30.23;;;4.10;71.80;;;;;;2343088;57;21046;-51
2022/12/04 06:20:47;;;;;;;77.20;29.52;;;4.10;71.80;;;;;;2343423;57;21050;-54
2022/12/04 06:23:14;;;;;;;75.97;31.05;;;4.10;71.80;;;;;;2343078;57;21042;-51
2022/12/04 06:25:41;;;;;;;68.18;29.05;;;4.10;71.90;;;;;;2343342;57;21090;-52
2022/12/04 06:28:08;;;;;;;71.00;29.83;;;4.10;72.00;;;;;;2343790;57;21113;-49
2022/12/04 06:30:36;;;;;;;78.20;31.90;;;4.10;72.00;;;;;;2343513;57;21062;-51
2022/12/04 06:33:03;;;;;;;69.95;28.73;;;4.10;72.00;;;;;;2341864;57;21066;-52
2022/12/04 06:35:30;;;;;;;83.82;31.30;;;4.10;72.00;;;;;;2343519;57;21101;-53
2022/12/04 06:37:57;;;;;;;77.37;31.02;;;4.10;72.10;;;;;;2343283;57;21062;-50
2022/12/04 06:40:24;;;;;;;79.25;31.40;;;4.10;72.30;;;;;;2343188;57;21113;-50
2022/12/04 06:42:51;;;;;;;71.57;29.80;;;4.10;72.20;;;;;;2342707;57;21061;-50
2022/12/04 06:45:19;;;;;;;71.30;30.98;;;4.10;72.20;;;;;;2343442;57;21076;-49
2022/12/04 06:47:46;;;;;;;77.32;29.55;;;4.10;72.20;;;;;;2342305;57;21082;-51
2022/12/04 06:50:13;;;;;;;82.28;32.25;;;4.10;72.30;;;;;;2342392;57;22234;-48
2022/12/04 06:52:40;;;;;;;76.97;31.33;;;4.20;72.20;;;;;;2343370;57;21049;-48
2022/12/04 06:55:08;;;;;;;78.22;31.00;;;4.20;72.20;;;;;;2343267;57;21109;-52
2022/12/04 06:57:35;;;;;;;74.68;30.45;;;4.20;72.30;;;;;;2343900;57;21046;-54
2022/12/04 07:00:05;;;;;;;81.63;32.53;;;4.20;72.20;;;;;;2342594;57;21042;-48
2022/12/04 07:02:32;;;;;;;79.50;33.30;;;4.20;72.20;;;;;;2343132;57;22187;-52
2022/12/04 07:04:59;;;;;;;82.88;31.60;;;4.20;72.20;;;;;;2343072;57;21105;-50
2022/12/04 07:07:26;;;;;;;86.80;32.78;;;4.20;72.20;;;;;;2341819;57;21649;-54
2022/12/04 07:09:53;;;;;;;86.25;35.33;;;4.20;72.20;;;;;;2343771;57;21030;-52
2022/12/04 07:12:20;;;;;;;67.93;28.98;;;4.20;72.30;;;;;;2343666;57;21562;-54
2022/12/04 07:14:47;;;;;;;65.47;29.63;;;4.20;72.40;;;;;;2343507;57;21234;-52
2022/12/04 07:17:14;;;;;;;82.18;31.55;;;4.30;72.40;;;;;;2342853;57;21050;-53
2022/12/04 07:19:42;;;;;;;77.28;31.42;;;4.30;72.40;;;;;;2553283;52;22075;-50
2022/12/04 07:22:09;;;;;;;81.63;30.90;;;4.30;72.50;;;;;;2372660;56;21047;-48
2022/12/04 07:24:36;;;;;;;73.07;30.65;;;4.30;72.30;;;;;;2371468;56;21055;-48
2022/12/04 07:27:04;;;;;;;78.93;31.17;;;4.30;72.40;;;;;;2372388;56;21169;-52
2022/12/04 07:29:31;;;;;;;73.95;31.25;;;4.40;72.50;;;;;;2372210;56;21094;-51
2022/12/04 07:31:58;;;;;;;73.75;30.17;;;4.40;72.40;;;;;;2371924;56;21485;-48
2022/12/04 07:34:25;;;;;;;77.07;31.75;;;4.40;72.40;;;;;;2372792;56;21011;-49
2022/12/04 07:36:52;;;;;;;75.93;30.05;;;4.40;72.50;;;;;;2372424;56;21642;-52
2022/12/04 07:41:56;;;;;;;84.85;32.60;;;4.40;72.30;;;;;;2353969;57;22097;-48
2022/12/04 07:44:23;;;;;;;81.87;32.17;;;4.40;72.20;;;;;;2346589;57;21041;-52
2022/12/04 07:49:55;;;;;;;77.20;30.58;;;4.50;71.60;;;;;;2353213;57;24999;-50
2022/12/04 07:52:24;;;;;;;76.18;30.88;;;4.30;72.00;;;;;;2345275;57;21073;-49
2022/12/04 07:54:51;;;;;;;86.93;32.83;;;4.30;72.30;;;;;;2343949;57;21100;-49
2022/12/04 07:57:18;;;;;;;84.35;31.55;;;4.30;72.50;;;;;;2349061;56;22094;-51
2022/12/04 07:59:45;;;;;;;76.20;30.70;;;4.30;72.70;;;;;;2371817;56;21020;-54
2022/12/04 08:02:15;;;;;;;80.22;31.37;;;4.30;72.60;;;;;;2373325;56;21071;-51
2022/12/04 08:04:42;;;;;;;74.10;30.35;;;4.40;72.80;;;;;;2373705;56;22955;-51
2022/12/04 08:07:09;;;;;;;83.07;34.25;;;4.40;72.70;;;;;;2374046;56;21044;-48
2022/12/04 08:09:36;;;;;;;80.47;31.67;;;4.40;72.70;;;;;;2373810;56;21087;-51
2022/12/04 08:12:04;;;;;;;86.90;34.10;;;4.40;72.60;;;;;;2373880;56;21099;-55
2022/12/04 08:14:31;;;;;;;83.32;32.65;;;4.40;72.60;;;;;;2373850;56;21547;-53
2022/12/04 08:16:58;;;;;;;79.05;30.95;;;4.50;72.60;;;;;;2372581;56;21056;-53
2022/12/04 08:19:25;;;;;;;74.97;31.62;;;4.50;72.60;;;;;;2373452;56;21103;-53
2022/12/04 08:21:54;;;;;;;82.93;31.62;;;4.50;72.70;;;;;;2374589;56;21083;-52
2022/12/04 08:24:21;;;;;;;80.55;31.12;;;4.50;72.60;;;;;;2374393;56;21048;-49
2022/12/04 08:26:49;;;;;;;78.85;32.20;;;4.50;72.60;;;;;;2374545;56;21131;-53
2022/12/04 08:29:16;;;;;;;78.90;30.20;;;4.50;72.60;;;;;;2373458;56;21143;-48
2022/12/04 08:31:43;;;;;;;86.65;31.95;;;4.50;72.60;;;;;;2373185;56;21048;-53
2022/12/04 08:34:10;;;;;;;81.78;30.12;;;4.50;72.60;;;;;;2373666;56;21052;-48
2022/12/04 08:36:37;;;;;;;76.72;31.55;;;4.50;72.60;;;;;;2372958;56;21622;-52
2022/12/04 08:39:05;;;;;;;81.85;33.17;;;4.50;72.70;;;;;;2373454;56;21563;-48
2022/12/04 08:41:32;;;;;;;81.63;32.83;;;4.50;72.70;;;;;;2373421;56;21546;-48
2022/12/04 08:43:59;;;;;;;74.45;31.10;;;4.50;72.70;;;;;;2374236;56;21064;-52
2022/12/04 08:46:27;;;;;;;78.25;31.73;;;4.50;72.80;;;;;;2375410;56;21083;-54
2022/12/04 08:48:55;;;;;;;75.50;33.50;;;4.50;72.70;;;;;;2375017;56;21115;-49
2022/12/04 08:51:24;;;;;;;77.20;32.05;;;4.50;72.70;;;;;;2374799;56;21082;-51
2022/12/04 08:53:54;;;;;;;79.03;33.30;;;4.50;72.70;;;;;;2375549;56;21091;-52
2022/12/04 08:56:22;;;;;;;70.80;30.17;;;4.50;72.70;;;;;;2375223;56;21575;-49
2022/12/04 08:58:49;;;;;;;74.65;32.00;;;4.50;72.70;;;;;;2374038;56;21535;-52
2022/12/04 09:01:16;;;;;;;73.45;32.90;;;4.50;72.70;;;;;;2373524;56;21147;-49
2022/12/04 09:03:45;;;;;;;72.90;31.65;;;4.50;72.70;;;;;;2372911;56;21057;-50
2022/12/04 09:06:14;;;;;;;76.18;31.85;;;4.50;72.80;;;;;;2373045;56;21048;-52
2022/12/04 09:08:42;;;;;;;75.10;31.15;;;4.50;72.90;;;;;;2372063;56;21068;-54
2022/12/04 09:11:11;;;;;;;82.60;32.42;;;4.60;73.00;;;;;;2373265;56;21055;-51
2022/12/04 09:13:39;;;;;;;68.28;30.90;;;4.60;73.00;;;;;;2372164;56;21599;-51
2022/12/04 09:16:09;;;;;;;78.20;32.63;;;4.60;73.00;;;;;;2373643;56;21032;-49
2022/12/04 09:18:37;;;;;;;72.00;30.30;;;4.70;72.90;;;;;;2373162;56;21655;-54
2022/12/04 09:21:07;;;;;;;71.93;31.25;;;4.70;72.90;;;;;;2373423;56;21562;-51
2022/12/04 09:23:36;;;;;;;72.00;32.22;;;4.70;72.80;;;;;;2372479;56;21536;-54
2022/12/04 09:26:05;;;;;;;74.03;32.47;;;4.70;72.80;;;;;;2372681;56;21028;-50
2022/12/04 09:28:33;;;;;;;76.78;31.12;;;4.80;72.90;;;;;;2371951;56;21626;-57
2022/12/04 09:31:02;;;;;;;72.03;30.05;;;4.80;72.90;;;;;;2372031;56;21083;-54
2022/12/04 09:33:29;;;;;;;72.70;30.75;;;4.80;72.80;;;;;;2372727;56;21193;-49
2022/12/04 09:35:58;;;;;;;70.50;30.88;;;4.80;72.80;;;;;;2372909;56;22168;-53
2022/12/04 09:38:26;;;;;;;68.05;29.70;;;4.90;72.80;;;;;;2372373;56;22483;-54
2022/12/04 09:41:00;;;;;;;73.40;33.60;;;4.90;72.80;;;;;;2371902;56;21052;-51
2022/12/04 09:43:33;;;;;;;76.30;32.63;;;4.90;72.80;;;;;;2374607;56;21091;-55
2022/12/04 09:46:06;;;;;;;73.43;29.85;;;4.90;72.70;;;;;;2373311;56;21507;-52
2022/12/04 09:48:37;;;;;;;71.75;30.33;;;5.00;72.70;;;;;;2374174;56;21023;-50
2022/12/04 09:51:06;;;;;;;73.57;31.12;;;5.00;72.70;;;;;;2373088;56;21098;-51
2022/12/04 09:53:44;;;;;;;71.45;31.55;;;5.00;72.60;;;;;;2372227;56;21607;-50
2022/12/04 09:56:14;;;;;;;76.12;32.22;;;5.00;72.50;;;;;;2372696;56;21076;-51
2022/12/04 09:58:45;;;;;;;72.82;31.25;;;5.10;72.50;;;;;;2372938;56;21107;-55
2022/12/04 10:01:21;;;;;;;82.37;32.60;;;5.10;72.50;;;;;;2372206;56;21638;-53
2022/12/04 10:03:48;;;;;;;62.25;29.42;;;5.10;72.50;;;;;;2371751;56;21110;-51
2022/12/04 10:06:21;;;;;;;70.60;31.17;;;5.20;72.60;;;;;;2372842;56;21527;-50
2022/12/04 10:08:56;;;;;;;70.20;30.13;;;5.20;72.60;;;;;;2373802;56;21531;-53
2022/12/04 10:11:31;;;;;;;71.90;30.52;;;5.20;72.40;;;;;;2372827;56;21578;-50
2022/12/04 10:14:21;;;;;;;72.78;30.83;;;5.20;72.40;;;;;;2373360;56;21599;-50
2022/12/04 10:17:10;;;;;;;67.20;29.05;;;5.20;72.40;;;;;;2373051;56;21064;-54
2022/12/04 10:19:46;;;;;;;69.25;30.77;;;5.20;72.40;;;;;;2372172;56;21607;-51
2022/12/04 10:22:22;;;;;;;63.92;28.73;;;5.30;72.50;;;;;;2371935;56;21697;-53
2022/12/04 10:24:52;;;;;;;69.85;32.20;;;5.30;72.40;;;;;;2373014;56;21644;-50
2022/12/04 10:27:25;;;;;;;70.50;32.15;;;5.30;72.30;;;;;;2372911;56;21048;-53
2022/12/04 10:30:03;;;;;;;69.50;31.23;;;5.30;72.40;;;;;;2372050;56;21528;-50
2022/12/04 10:32:32;;;;;;;65.60;29.63;;;5.30;72.40;;;;;;2373034;56;21055;-50
2022/12/04 10:35:17;;;;;;;64.10;30.12;;;5.40;72.40;;;;;;2372986;56;21107;-53
2022/12/04 10:37:44;;;;;;;71.55;31.73;;;5.40;72.40;;;;;;2373740;56;21016;-52
2022/12/04 10:40:17;;;;;;;58.95;29.17;;;5.40;72.40;;;;;;2373741;56;21088;-52
2022/12/04 10:42:52;;;;;;;70.87;31.58;;;5.40;72.30;;;;;;2374547;56;21098;-50
2022/12/04 10:45:20;;;;;;;69.18;31.52;;;5.40;72.20;;;;;;2374556;56;21035;-52
2022/12/04 10:47:50;;;;;;;69.50;31.02;;;5.40;72.20;;;;;;2372459;56;21118;-55
2022/12/04 10:50:20;;;;;;;68.30;31.00;;;5.50;72.30;;;;;;2372545;56;21318;-54
2022/12/04 10:52:48;;;;;;;71.05;31.10;;;5.50;72.20;;;;;;2372485;56;21198;-52
2022/12/04 10:55:26;;;;;;;68.35;30.90;;;5.50;72.20;;;;;;2372357;56;21674;-49
2022/12/04 10:57:53;;;;;;;66.53;29.87;;;5.50;72.20;;;;;;2370068;56;21809;-50
2022/12/04 11:00:27;;;;;;;66.97;28.90;;;5.50;72.40;;;;;;2372770;56;21063;-53
2022/12/04 11:02:56;;;;;;;67.50;29.75;;;5.50;72.30;;;;;;2373023;56;21079;-53
2022/12/04 11:05:27;;;;;;;64.12;31.17;;;5.50;72.20;;;;;;2373731;56;21068;-49
2022/12/04 11:07:56;;;;;;;60.22;29.33;;;5.50;72.20;;;;;;2371709;56;21595;-49
2022/12/04 11:10:28;;;;;;;70.28;31.60;;;5.50;72.30;;;;;;2373403;56;21619;-50
2022/12/04 11:12:56;;;;;;;65.60;29.98;;;5.60;72.30;;;;;;2372551;56;21036;-49
2022/12/04 11:15:24;;;;;;;63.05;32.17;;;5.60;72.20;;;;;;2372069;56;21618;-50
2022/12/04 11:17:52;;;;;;;67.85;31.27;;;5.60;72.30;;;;;;2372922;56;21110;-50
2022/12/04 11:20:21;;;;;;;59.92;28.45;;;5.70;72.40;;;;;;2372932;56;21052;-52
2022/12/04 11:22:51;;;;;;;64.45;29.40;;;5.60;72.20;;;;;;2372223;56;22135;-50
2022/12/04 11:25:21;;;;;;;65.60;30.73;;;5.70;72.30;;;;;;2371804;56;21044;-51
2022/12/04 11:27:52;;;;;;;63.22;29.70;;;5.70;72.30;;;;;;2371796;56;21611;-51
2022/12/04 11:30:23;;;;;;;63.95;29.65;;;5.70;72.90;;;;;;2372348;56;21071;-53
2022/12/04 11:32:51;;;;;;;61.08;28.12;;;5.70;72.20;;;;;;2373403;56;21651;-53
2022/12/04 11:35:23;;;;;;;58.85;29.60;;;5.80;72.30;;;;;;2374228;56;21082;-55
2022/12/04 11:37:55;;;;;;;53.97;26.05;;;5.80;72.30;;;;;;2374063;56;21140;-53
2022/12/04 11:40:23;;;;;;;58.58;27.00;;;5.80;72.30;;;;;;2372748;56;21095;-56
2022/12/04 11:43:10;;;;;;;59.45;28.67;;;5.90;72.30;;;;;;2372989;56;21613;-53
2022/12/04 11:45:38;;;;;;;53.03;25.20;;;5.90;72.30;;;;;;2371976;56;21688;-48
2022/12/04 11:48:14;;;;;;;63.65;27.75;;;5.90;72.20;;;;;;2370326;56;21846;-51
2022/12/04 11:50:48;;;;;;;55.50;27.20;;;5.90;72.10;;;;;;2371817;56;21539;-53
2022/12/04 11:53:22;;;;;;;51.75;24.87;;;5.90;72.10;;;;;;2372660;56;21500;-52
2022/12/04 11:56:08;;;;;;;57.50;27.48;;;5.90;72.20;;;;;;2373374;56;21048;-50
2022/12/04 11:58:49;;;;;;;57.78;28.75;;;6.00;72.20;;;;;;2372209;56;21519;-52
2022/12/04 12:01:27;;;;;;;61.15;26.30;;;6.00;72.20;;;;;;2372870;56;21607;-49
2022/12/04 12:04:13;;;;;;;56.42;26.65;;;6.00;72.10;;;;;;2371819;56;21573;-50
2022/12/04 12:06:54;;;;;;;56.42;26.75;;;6.00;72.20;;;;;;2370706;56;21051;-50
2022/12/04 12:09:32;;;;;;;53.05;24.63;;;6.00;72.10;;;;;;2371923;56;21157;-51
2022/12/04 12:12:05;;;;;;;55.15;26.02;;;6.00;72.00;;;;;;2372624;56;21702;-52
2022/12/04 12:14:39;;;;;;;60.65;26.90;;;6.00;72.00;;;;;;2372959;56;21615;-50
2022/12/04 12:17:20;;;;;;;54.05;25.33;;;6.00;72.10;;;;;;2373962;56;21516;-50
2022/12/04 12:20:05;;;;;;;49.97;24.25;;;6.00;72.10;;;;;;2374358;56;21159;-53
2022/12/04 12:22:48;;;;;;;58.03;26.73;;;6.10;72.10;;;;;;2373869;56;21028;-52
2022/12/04 12:25:20;;;;;;;55.80;26.58;;;6.10;72.90;;;;;;2373079;56;21520;-52
2022/12/04 12:28:04;;;;;;;55.33;26.65;;;6.10;72.10;;;;;;2373998;56;21118;-52
2022/12/04 12:30:36;;;;;;;57.95;26.37;;;6.10;72.10;;;;;;2371333;56;21075;-49
2022/12/04 12:33:15;;;;;;;57.40;26.27;;;6.10;72.10;;;;;;2372748;56;21056;-49
2022/12/04 12:35:52;;;;;;;51.08;24.00;;;6.10;72.10;;;;;;2372893;56;22035;-52
2022/12/04 12:38:24;;;;;;;53.15;24.42;;;6.10;72.10;;;;;;2372399;56;21107;-51
2022/12/04 12:40:56;;;;;;;53.67;25.35;;;6.10;72.20;;;;;;2372001;56;21127;-53
2022/12/04 12:43:29;;;;;;;53.60;25.70;;;6.20;72.20;;;;;;2372881;56;21536;-49
2022/12/04 12:46:03;;;;;;;54.10;24.58;;;6.20;72.20;;;;;;2373041;56;21103;-50
2022/12/04 12:48:37;;;;;;;53.47;25.83;;;6.20;72.00;;;;;;2372447;56;21630;-52
2022/12/04 12:51:13;;;;;;;55.33;25.90;;;6.20;72.10;;;;;;2373482;56;21548;-48
2022/12/04 12:53:46;;;;;;;51.13;25.62;;;6.20;72.20;;;;;;2372994;56;21528;-48
2022/12/04 12:56:15;;;;;;;52.78;25.30;;;6.20;72.30;;;;;;2373122;56;21087;-52
2022/12/04 12:58:46;;;;;;;51.85;23.90;;;6.20;72.20;;;;;;2372291;56;21565;-55
2022/12/04 13:01:18;;;;;;;50.40;24.67;;;6.20;72.30;;;;;;2372788;56;21147;-51
2022/12/04 13:03:54;;;;;;;49.97;23.90;;;6.20;72.40;;;;;;2371946;56;22223;-50
2022/12/04 13:06:27;;;;;;;53.63;23.90;;;6.20;72.40;;;;;;2372471;56;21107;-50
2022/12/04 13:09:05;;;;;;;53.33;24.98;;;6.20;72.40;;;;;;2371614;56;21397;-53
2022/12/04 13:11:33;;;;;;;50.35;23.83;;;6.20;72.40;;;;;;2372373;56;21122;-53
2022/12/04 13:14:02;;;;;;;46.70;23.17;;;6.20;72.50;;;;;;2374115;56;21582;-52
2022/12/04 13:16:36;;;;;;;53.72;24.23;;;6.20;72.60;;;;;;2374316;56;21090;-53
2022/12/04 13:19:11;;;;;;;46.30;22.65;;;6.30;72.70;;;;;;2374104;56;21016;-51
2022/12/04 13:21:44;;;;;;;47.92;21.60;;;6.30;72.80;;;;;;2372720;56;21051;-55